Time;durP1;ratioP1;P1;durP2;ratioP2;P2;SDS_P1;SDS_P2;PMS_P1;PMS_P2;Temp;Humidity;BMP_temperature;BMP_pressure;BME280_temperature;BME280_humidity;BME280_pressure;Samples;Min_cycle;Max_cycle;Signal;HPM_P1;HPM_P2
2024/01/12 05:06:10;;;;;;;0.60;0.60;;;-5.30;99.90;;;;;;5566509;23;20625;-64
2024/01/12 05:08:37;;;;;;;0.50;0.50;;;-5.30;99.90;;;;;;4937804;29;20268;-64
2024/01/12 05:11:03;;;;;;;0.50;0.50;;;-5.30;99.90;;;;;;4938197;29;20170;-64
2024/01/12 05:13:29;;;;;;;0.40;0.40;;;-5.40;99.90;;;;;;4938062;29;20180;-66
2024/01/12 05:15:55;;;;;;;0.50;0.50;;;-5.40;99.90;;;;;;4937585;29;20209;-65
2024/01/12 05:18:21;;;;;;;0.40;0.40;;;-5.40;99.90;;;;;;4937849;29;20178;-64
2024/01/12 05:20:46;;;;;;;0.50;0.50;;;-5.50;99.90;;;;;;4938140;29;20182;-64
2024/01/12 05:23:12;;;;;;;0.50;0.50;;;-5.50;99.90;;;;;;4937749;29;20433;-65
2024/01/12 05:25:37;;;;;;;0.60;0.60;;;-5.50;99.90;;;;;;4937429;29;20204;-64
2024/01/12 05:28:03;;;;;;;0.30;0.30;;;-5.50;99.90;;;;;;4937884;29;20634;-65
2024/01/12 05:30:30;;;;;;;0.50;0.50;;;-5.50;99.90;;;;;;4937597;29;20170;-64
2024/01/12 05:32:55;;;;;;;0.45;0.45;;;-5.40;99.90;;;;;;4937795;29;20419;-64
2024/01/12 05:35:21;;;;;;;0.50;0.50;;;-5.40;99.90;;;;;;4936570;29;20341;-64
2024/01/12 05:37:47;;;;;;;0.60;0.60;;;-5.40;99.90;;;;;;4937167;29;20170;-64
2024/01/12 05:40:12;;;;;;;0.40;0.40;;;-5.40;99.90;;;;;;4937636;29;20599;-64
2024/01/12 05:42:38;;;;;;;0.50;0.50;;;-5.40;99.90;;;;;;4936036;29;20269;-65
2024/01/12 05:45:04;;;;;;;0.50;0.50;;;-5.40;99.90;;;;;;4937045;29;20215;-64
2024/01/12 05:47:29;;;;;;;0.60;0.60;;;-5.40;99.90;;;;;;4935948;29;20176;-65
2024/01/12 05:49:55;;;;;;;0.40;0.40;;;-5.50;99.90;;;;;;4937371;29;20452;-64
2024/01/12 05:52:20;;;;;;;0.40;0.40;;;-5.50;99.90;;;;;;4937339;29;20575;-64
2024/01/12 05:54:46;;;;;;;0.50;0.50;;;-5.50;99.90;;;;;;4937183;29;20174;-64
2024/01/12 05:57:11;;;;;;;0.40;0.40;;;-5.50;99.90;;;;;;4937537;29;20193;-63
2024/01/12 05:59:37;;;;;;;0.40;0.40;;;-5.50;99.90;;;;;;4939369;29;20525;-64
2024/01/12 06:02:03;;;;;;;0.53;0.53;;;-5.50;99.90;;;;;;4938629;29;20170;-63
2024/01/12 06:04:29;;;;;;;0.50;0.50;;;-5.50;99.90;;;;;;4936265;29;20595;-65
2024/01/12 06:06:55;;;;;;;0.40;0.40;;;-5.50;99.90;;;;;;4937022;29;20445;-64
2024/01/12 06:09:20;;;;;;;1.13;1.08;;;-5.50;99.90;;;;;;4936987;29;20204;-64
2024/01/12 06:11:46;;;;;;;0.50;0.50;;;-5.50;99.90;;;;;;4937442;29;20229;-64
2024/01/12 06:14:16;;;;;;;0.40;0.40;;;-5.50;99.90;;;;;;4937495;29;20178;-66
2024/01/12 06:16:42;;;;;;;1.02;1.02;;;-5.40;99.90;;;;;;4937573;29;20202;-64
2024/01/12 06:19:07;;;;;;;0.40;0.40;;;-5.40;99.90;;;;;;4937405;29;20174;-64
2024/01/12 06:21:33;;;;;;;0.80;0.80;;;-5.40;99.90;;;;;;4937060;29;20241;-64
2024/01/12 06:23:58;;;;;;;0.40;0.40;;;-5.40;99.90;;;;;;4936982;29;20173;-64
2024/01/12 06:26:24;;;;;;;0.40;0.40;;;-5.40;99.90;;;;;;4936161;29;20212;-64
2024/01/12 06:28:49;;;;;;;0.50;0.50;;;-5.40;99.90;;;;;;4936542;29;20208;-64
2024/01/12 06:31:15;;;;;;;0.60;0.60;;;-5.40;99.90;;;;;;4936579;29;20180;-64
2024/01/12 06:33:41;;;;;;;0.40;0.40;;;-5.40;99.90;;;;;;4936696;29;20170;-64
2024/01/12 06:36:16;;;;;;;0.40;0.40;;;-5.50;99.90;;;;;;5110554;27;20564;-65
2024/01/12 06:38:42;;;;;;;1.23;1.23;;;-5.50;99.90;;;;;;5109612;28;20233;-65
2024/01/12 06:41:08;;;;;;;0.40;0.40;;;-5.50;99.90;;;;;;5110879;28;20260;-64
2024/01/12 06:43:33;;;;;;;0.50;0.50;;;-5.50;99.90;;;;;;5110865;28;20626;-63
2024/01/12 06:45:59;;;;;;;2.30;2.10;;;-5.60;99.90;;;;;;5110702;28;20191;-65
2024/01/12 06:48:24;;;;;;;0.40;0.40;;;-5.60;99.90;;;;;;5110922;28;20255;-63
2024/01/12 06:50:50;;;;;;;0.50;0.50;;;-5.70;99.90;;;;;;5111011;28;20617;-63
2024/01/12 06:53:15;;;;;;;0.50;0.50;;;-5.70;99.90;;;;;;5110775;28;20182;-66
2024/01/12 06:55:41;;;;;;;0.50;0.50;;;-5.60;99.90;;;;;;5110100;28;20199;-67
2024/01/12 06:58:07;;;;;;;0.50;0.50;;;-5.60;99.90;;;;;;5110347;28;20175;-66
2024/01/12 07:00:32;;;;;;;0.50;0.50;;;-5.60;99.90;;;;;;5110728;28;20167;-66
2024/01/12 07:02:58;;;;;;;0.40;0.40;;;-5.60;99.90;;;;;;5110712;28;20256;-66
2024/01/12 07:05:25;;;;;;;0.40;0.40;;;-5.60;99.90;;;;;;5110193;28;20202;-64
2024/01/12 07:07:50;;;;;;;0.40;0.40;;;-5.60;99.90;;;;;;5110578;28;20220;-63
2024/01/12 07:10:16;;;;;;;0.40;0.40;;;-5.60;99.90;;;;;;5110291;28;20254;-64
2024/01/12 07:12:42;;;;;;;0.50;0.50;;;-5.60;99.90;;;;;;5110158;28;20638;-63
2024/01/12 07:15:07;;;;;;;0.40;0.40;;;-5.60;99.90;;;;;;5108433;28;20203;-63
2024/01/12 07:17:33;;;;;;;0.50;0.50;;;-5.60;99.90;;;;;;5110269;28;20266;-64
2024/01/12 07:19:59;;;;;;;0.40;0.40;;;-5.50;99.90;;;;;;5110129;28;20250;-64
2024/01/12 07:22:24;;;;;;;0.40;0.40;;;-5.50;99.90;;;;;;5110312;28;20246;-63
2024/01/12 07:24:50;;;;;;;0.50;0.50;;;-5.50;99.90;;;;;;5109786;28;20697;-63
2024/01/12 07:27:16;;;;;;;0.50;0.50;;;-5.40;99.90;;;;;;5109943;28;20194;-63
2024/01/12 07:29:42;;;;;;;0.40;0.40;;;-5.40;99.90;;;;;;5110160;28;20199;-65
2024/01/12 07:32:07;;;;;;;0.50;0.50;;;-5.40;99.90;;;;;;5110298;28;20597;-64
2024/01/12 07:34:33;;;;;;;0.40;0.40;;;-5.40;99.90;;;;;;5109484;28;20203;-64
2024/01/12 07:36:58;;;;;;;0.50;0.50;;;-5.30;99.90;;;;;;5109708;28;20579;-64
2024/01/12 07:39:24;;;;;;;0.40;0.40;;;-5.30;99.90;;;;;;5109942;28;20216;-64
2024/01/12 07:41:50;;;;;;;0.40;0.40;;;-5.30;99.90;;;;;;5109774;28;20680;-63
2024/01/12 07:44:15;;;;;;;0.40;0.40;;;-5.20;99.90;;;;;;5109493;28;20527;-65
2024/01/12 07:46:41;;;;;;;0.40;0.40;;;-5.00;99.90;;;;;;5101116;28;20650;-65
2024/01/12 07:49:07;;;;;;;0.40;0.40;;;-4.80;99.90;;;;;;5096268;28;20247;-64
2024/01/12 07:51:33;;;;;;;0.40;0.40;;;-4.70;99.90;;;;;;5096269;28;20979;-64
2024/01/12 07:53:58;;;;;;;0.60;0.60;;;-4.60;99.90;;;;;;5096210;28;20172;-64
2024/01/12 07:56:24;;;;;;;0.50;0.50;;;-4.50;99.90;;;;;;5095667;28;20188;-64
2024/01/12 07:58:49;;;;;;;0.60;0.60;;;-4.40;99.90;;;;;;5095972;28;20513;-64
2024/01/12 08:01:16;;;;;;;0.40;0.40;;;-4.30;99.90;;;;;;5096072;28;20176;-64
2024/01/12 08:03:43;;;;;;;0.45;0.45;;;-4.30;99.90;;;;;;5096187;28;20199;-64
2024/01/12 08:06:09;;;;;;;0.57;0.57;;;-4.20;99.90;;;;;;5095563;28;20245;-64
2024/01/12 08:08:34;;;;;;;0.40;0.40;;;-4.30;99.90;;;;;;5096041;28;20168;-64
2024/01/12 08:11:00;;;;;;;0.40;0.40;;;-4.30;99.90;;;;;;5095718;28;20241;-64
2024/01/12 08:13:26;;;;;;;0.50;0.50;;;-4.30;99.90;;;;;;5095768;28;20703;-65
2024/01/12 08:15:51;;;;;;;0.40;0.40;;;-4.30;99.90;;;;;;5095222;28;20235;-64
2024/01/12 08:18:18;;;;;;;0.50;0.50;;;-4.30;99.90;;;;;;5095678;28;20486;-65
2024/01/12 08:20:44;;;;;;;0.40;0.40;;;-4.20;99.90;;;;;;5095372;28;20160;-65
2024/01/12 08:23:10;;;;;;;0.47;0.47;;;-4.10;99.90;;;;;;5095509;28;20165;-65
2024/01/12 08:25:36;;;;;;;0.30;0.30;;;-3.90;99.90;;;;;;5076862;28;20295;-64
2024/01/12 08:28:01;;;;;;;0.50;0.50;;;-3.70;99.90;;;;;;5095397;28;20230;-65
2024/01/12 08:30:27;;;;;;;1.03;1.03;;;-3.50;99.90;;;;;;5095570;28;20172;-64
2024/01/12 08:32:52;;;;;;;0.40;0.40;;;-3.10;99.90;;;;;;5095442;28;20169;-65
2024/01/12 08:35:18;;;;;;;0.50;0.50;;;-2.80;99.90;;;;;;5094762;28;20707;-65
2024/01/12 08:37:44;;;;;;;0.60;0.60;;;-2.50;99.90;;;;;;5095480;28;20167;-68
2024/01/12 08:40:09;;;;;;;0.50;0.50;;;-2.10;99.90;;;;;;5095310;28;20225;-65
2024/01/12 08:42:37;;;;;;;1.98;1.88;;;-1.80;99.90;;;;;;5095185;28;20176;-65
2024/01/12 08:45:04;;;;;;;0.60;0.60;;;-1.50;99.90;;;;;;5094760;28;20652;-65
2024/01/12 08:47:29;;;;;;;0.40;0.40;;;-1.10;99.90;;;;;;5095193;28;20317;-65
2024/01/12 08:49:55;;;;;;;0.60;0.60;;;-0.60;99.90;;;;;;5093680;28;20259;-65
2024/01/12 08:52:20;;;;;;;1.23;1.13;;;-0.20;99.90;;;;;;5094850;28;20608;-64
2024/01/12 08:54:46;;;;;;;0.30;0.30;;;0.00;99.90;;;;;;5094786;28;20249;-65
2024/01/12 08:57:11;;;;;;;0.30;0.30;;;0.30;99.90;;;;;;5094377;28;20237;-65
2024/01/12 08:59:37;;;;;;;0.50;0.50;;;0.70;99.90;;;;;;5094257;28;20180;-65
2024/01/12 09:02:03;;;;;;;0.93;0.93;;;1.00;99.90;;;;;;5094812;28;20162;-66
2024/01/12 09:04:28;;;;;;;0.70;0.70;;;1.30;99.90;;;;;;5094568;28;20179;-64
2024/01/12 09:06:54;;;;;;;0.30;0.30;;;1.40;99.90;;;;;;5094408;28;20254;-64
2024/01/12 09:09:20;;;;;;;0.50;0.50;;;1.50;99.90;;;;;;5094430;28;20164;-66
2024/01/12 09:11:45;;;;;;;0.30;0.30;;;1.70;99.90;;;;;;5094585;28;20463;-64
2024/01/12 09:14:11;;;;;;;0.73;0.73;;;1.90;99.90;;;;;;5094202;28;20237;-64
2024/01/12 09:16:36;;;;;;;0.43;0.43;;;2.20;99.90;;;;;;5094422;28;20240;-66
2024/01/12 09:19:02;;;;;;;0.33;0.33;;;2.40;99.90;;;;;;5094741;28;20175;-65
2024/01/12 09:21:28;;;;;;;0.50;0.50;;;2.60;99.90;;;;;;5094269;28;20166;-66
2024/01/12 09:23:53;;;;;;;0.30;0.30;;;2.80;99.90;;;;;;5094285;28;20409;-65
2024/01/12 09:26:19;;;;;;;0.30;0.30;;;3.00;99.90;;;;;;5093692;28;20185;-65
2024/01/12 09:28:45;;;;;;;0.40;0.40;;;3.10;99.10;;;;;;5092834;28;20220;-64
2024/01/12 09:31:10;;;;;;;0.37;0.37;;;2.90;98.90;;;;;;5094239;28;20221;-65
2024/01/12 09:33:36;;;;;;;0.40;0.40;;;2.80;99.30;;;;;;5094327;28;20164;-65
2024/01/12 09:36:03;;;;;;;0.60;0.60;;;2.80;98.50;;;;;;5093687;28;20329;-67
2024/01/12 09:38:29;;;;;;;1.00;0.80;;;2.90;98.90;;;;;;5094033;28;20183;-65
2024/01/12 09:40:54;;;;;;;0.37;0.37;;;2.90;98.50;;;;;;5094027;28;20163;-65
2024/01/12 09:43:22;;;;;;;0.30;0.30;;;3.00;99.10;;;;;;5094157;28;20743;-64
2024/01/12 09:45:50;;;;;;;0.60;0.60;;;3.30;99.10;;;;;;5093700;28;20973;-65
2024/01/12 09:48:16;;;;;;;0.40;0.40;;;3.60;97.70;;;;;;5092574;28;20184;-67
2024/01/12 09:50:43;;;;;;;0.30;0.30;;;3.70;97.50;;;;;;5094034;28;20233;-67
2024/01/12 09:53:09;;;;;;;1.98;1.88;;;3.80;97.00;;;;;;5094197;28;20464;-67
2024/01/12 09:55:35;;;;;;;0.60;0.60;;;3.90;96.90;;;;;;5093447;28;20220;-67
2024/01/12 09:58:01;;;;;;;0.30;0.30;;;4.00;96.50;;;;;;5093836;28;20413;-67
2024/01/12 10:00:31;;;;;;;0.40;0.40;;;4.20;96.20;;;;;;5093533;28;20160;-66
2024/01/12 10:02:58;;;;;;;0.50;0.50;;;4.40;96.10;;;;;;5093998;28;20170;-67
2024/01/12 10:05:24;;;;;;;0.73;0.73;;;4.60;96.00;;;;;;5092117;28;20690;-67
2024/01/12 10:07:50;;;;;;;3.28;1.10;;;4.80;95.20;;;;;;5094261;28;20426;-66
2024/01/12 10:10:16;;;;;;;0.87;0.87;;;4.70;94.80;;;;;;5093422;28;20257;-66
2024/01/12 10:12:41;;;;;;;0.30;0.30;;;4.80;95.10;;;;;;5093620;28;20253;-66
2024/01/12 10:15:08;;;;;;;0.33;0.33;;;5.00;94.40;;;;;;5093088;28;20191;-66
2024/01/12 10:17:34;;;;;;;0.40;0.40;;;5.00;94.70;;;;;;5093668;28;20166;-67
2024/01/12 10:20:00;;;;;;;1.07;0.97;;;5.20;94.30;;;;;;5093510;28;20222;-67
2024/01/12 10:22:26;;;;;;;0.70;0.70;;;5.30;94.20;;;;;;5092244;28;20799;-67
2024/01/12 10:24:59;;;;;;;0.30;0.30;;;5.30;92.90;;;;;;5093042;28;20408;-67
2024/01/12 10:27:26;;;;;;;0.30;0.30;;;5.10;93.50;;;;;;5093439;28;20398;-67
2024/01/12 10:29:52;;;;;;;0.30;0.30;;;5.10;93.30;;;;;;5093508;28;20174;-67
2024/01/12 10:32:19;;;;;;;0.90;0.90;;;5.10;93.50;;;;;;5093371;28;20472;-65
2024/01/12 10:34:47;;;;;;;0.50;0.50;;;5.20;93.60;;;;;;5091520;28;20816;-65
2024/01/12 10:37:15;;;;;;;2.10;1.02;;;5.30;93.00;;;;;;5093259;28;20786;-64
2024/01/12 10:39:46;;;;;;;1.15;1.10;;;5.10;92.90;;;;;;5093353;28;20164;-65
2024/01/12 10:42:12;;;;;;;0.30;0.30;;;4.90;93.30;;;;;;5093209;28;20172;-66
2024/01/12 10:44:42;;;;;;;0.82;0.82;;;4.80;93.20;;;;;;5092991;28;20382;-66
2024/01/12 10:47:20;;;;;;;0.85;0.85;;;4.80;93.50;;;;;;5093519;28;20200;-65
2024/01/12 10:49:50;;;;;;;1.52;1.42;;;4.80;93.30;;;;;;5093712;28;20180;-65
2024/01/12 10:52:24;;;;;;;0.52;0.52;;;4.80;93.60;;;;;;5093272;28;20183;-65
2024/01/12 10:54:56;;;;;;;0.73;0.70;;;4.60;93.00;;;;;;5093117;28;20558;-66
2024/01/12 10:57:22;;;;;;;0.30;0.20;;;4.40;93.60;;;;;;5093329;28;20161;-65
2024/01/12 10:59:49;;;;;;;0.30;0.20;;;4.40;94.20;;;;;;5093072;28;20157;-65
2024/01/12 11:02:15;;;;;;;0.50;0.50;;;4.50;93.90;;;;;;5093140;28;20176;-67
2024/01/12 11:04:42;;;;;;;11.23;2.47;;;4.70;93.40;;;;;;5092806;28;20191;-65
2024/01/12 11:07:09;;;;;;;0.30;0.30;;;4.70;93.50;;;;;;5093067;28;20184;-65
2024/01/12 11:09:35;;;;;;;0.40;0.40;;;4.90;93.50;;;;;;5093061;28;20561;-65
2024/01/12 11:12:08;;;;;;;0.40;0.40;;;4.60;93.20;;;;;;5093017;28;20182;-65
2024/01/12 11:14:35;;;;;;;0.30;0.30;;;4.20;93.60;;;;;;5092802;28;20206;-65
2024/01/12 11:17:01;;;;;;;0.60;0.60;;;3.70;94.30;;;;;;5091680;28;20665;-64
2024/01/12 11:19:28;;;;;;;0.30;0.30;;;3.40;95.20;;;;;;5091686;28;20172;-65
2024/01/12 11:22:09;;;;;;;0.40;0.40;;;3.20;95.10;;;;;;5094925;28;20192;-64
2024/01/12 11:24:43;;;;;;;0.82;0.82;;;2.80;95.30;;;;;;5096265;28;20176;-65
2024/01/12 11:27:14;;;;;;;0.85;0.85;;;2.30;96.00;;;;;;5096748;28;20226;-65
2024/01/12 11:29:41;;;;;;;0.30;0.30;;;2.00;96.50;;;;;;5096869;28;20176;-64
2024/01/12 11:32:06;;;;;;;0.80;0.77;;;1.70;97.70;;;;;;5096543;28;20253;-63
2024/01/12 11:34:34;;;;;;;3.13;2.73;;;1.50;99.00;;;;;;5096212;28;20382;-63
2024/01/12 11:37:00;;;;;;;0.30;0.30;;;1.20;99.80;;;;;;5096297;28;20542;-63
2024/01/12 11:39:31;;;;;;;0.40;0.40;;;1.00;99.90;;;;;;5095084;28;20169;-64
2024/01/12 11:41:57;;;;;;;0.73;0.73;;;0.80;99.90;;;;;;5096501;28;20247;-63
2024/01/12 11:44:24;;;;;;;0.50;0.50;;;0.60;99.90;;;;;;5096297;28;20256;-64
2024/01/12 11:46:51;;;;;;;0.50;0.50;;;0.60;99.90;;;;;;5096329;28;20202;-64
2024/01/12 11:49:16;;;;;;;0.40;0.40;;;0.50;99.90;;;;;;5096501;28;20172;-66
2024/01/12 11:51:43;;;;;;;0.40;0.40;;;0.50;99.90;;;;;;5096037;28;20259;-65
2024/01/12 11:54:09;;;;;;;0.50;0.50;;;0.40;99.90;;;;;;5095747;28;20165;-69
2024/01/12 11:56:35;;;;;;;0.70;0.70;;;0.30;99.90;;;;;;5095888;28;20183;-65
2024/01/12 11:59:00;;;;;;;0.50;0.50;;;0.30;99.90;;;;;;5096124;28;20176;-68
2024/01/12 12:01:26;;;;;;;0.50;0.50;;;0.30;99.90;;;;;;5095891;28;20278;-67
2024/01/12 12:03:53;;;;;;;0.57;0.57;;;0.40;99.90;;;;;;5096048;28;20195;-68
2024/01/12 12:06:19;;;;;;;0.40;0.40;;;0.50;99.90;;;;;;5095456;28;20192;-68
2024/01/12 12:08:45;;;;;;;0.50;0.50;;;0.60;99.90;;;;;;5095767;28;20187;-67
2024/01/12 12:11:12;;;;;;;0.40;0.40;;;0.60;99.90;;;;;;5095598;28;20819;-68
2024/01/12 12:13:38;;;;;;;0.50;0.50;;;0.60;99.90;;;;;;5095855;28;20641;-65
2024/01/12 12:16:04;;;;;;;0.40;0.40;;;0.60;99.90;;;;;;5095319;28;20200;-67
2024/01/12 12:18:36;;;;;;;0.40;0.40;;;0.50;99.90;;;;;;5095752;28;20518;-66
2024/01/12 12:21:02;;;;;;;2.38;1.35;;;0.60;99.90;;;;;;5095367;28;20795;-66
2024/01/12 12:23:28;;;;;;;0.50;0.50;;;0.70;99.90;;;;;;5095420;28;20191;-65
2024/01/12 12:25:54;;;;;;;0.50;0.50;;;0.60;99.90;;;;;;5094917;28;20715;-66
2024/01/12 12:28:21;;;;;;;0.30;0.30;;;0.60;99.90;;;;;;5095468;28;20255;-65
2024/01/12 12:30:47;;;;;;;0.30;0.30;;;0.70;99.90;;;;;;5095366;28;20180;-66
2024/01/12 12:33:13;;;;;;;1.90;1.80;;;0.70;99.90;;;;;;5095195;28;20168;-64
2024/01/12 12:35:38;;;;;;;0.30;0.30;;;0.80;99.90;;;;;;5094568;28;20245;-65
2024/01/12 12:38:04;;;;;;;0.30;0.30;;;0.80;99.90;;;;;;5095482;28;20160;-64
2024/01/12 12:40:33;;;;;;;0.40;0.40;;;0.70;99.90;;;;;;5095305;28;20164;-64
2024/01/12 12:42:58;;;;;;;0.57;0.57;;;0.60;99.90;;;;;;5095008;28;20495;-65
2024/01/12 12:45:24;;;;;;;0.50;0.50;;;0.60;99.90;;;;;;5094853;28;20194;-66
2024/01/12 12:47:50;;;;;;;0.40;0.40;;;0.60;99.90;;;;;;5095202;28;20175;-66
2024/01/12 12:50:16;;;;;;;0.80;0.80;;;0.60;99.90;;;;;;5095082;28;20191;-65
2024/01/12 12:52:44;;;;;;;0.40;0.40;;;0.60;99.90;;;;;;5094897;28;20439;-65
2024/01/12 12:55:10;;;;;;;0.50;0.50;;;0.70;99.90;;;;;;5094567;28;20550;-64
2024/01/12 12:57:37;;;;;;;0.50;0.50;;;0.60;99.90;;;;;;5094919;28;20179;-65
2024/01/12 13:00:09;;;;;;;0.85;0.85;;;0.50;99.90;;;;;;5094912;28;20463;-63
2024/01/12 13:02:35;;;;;;;0.60;0.60;;;0.50;99.90;;;;;;5094839;28;20183;-64
2024/01/12 13:05:01;;;;;;;0.40;0.40;;;0.50;99.90;;;;;;5094460;28;20172;-64
2024/01/12 13:07:26;;;;;;;0.40;0.40;;;0.50;99.90;;;;;;5094703;28;20172;-63
2024/01/12 13:09:52;;;;;;;0.30;0.30;;;0.60;99.90;;;;;;5094725;28;20179;-64
2024/01/12 13:12:18;;;;;;;0.40;0.40;;;0.60;99.90;;;;;;5094650;28;20196;-64
2024/01/12 13:14:44;;;;;;;0.30;0.30;;;0.60;99.90;;;;;;5094159;28;20453;-65
2024/01/12 13:17:11;;;;;;;0.50;0.50;;;0.60;99.90;;;;;;5094406;28;20190;-64
2024/01/12 13:19:37;;;;;;;0.40;0.40;;;0.60;99.90;;;;;;5094462;28;20171;-64
2024/01/12 13:22:03;;;;;;;0.40;0.40;;;0.50;99.90;;;;;;5094509;28;20251;-67
2024/01/12 13:24:28;;;;;;;0.30;0.30;;;0.50;99.90;;;;;;5094005;28;20256;-66
2024/01/12 13:26:54;;;;;;;0.30;0.30;;;0.40;99.90;;;;;;5094293;28;20587;-66
2024/01/12 13:29:20;;;;;;;0.40;0.40;;;0.40;99.90;;;;;;5094228;28;20333;-66
2024/01/12 13:31:46;;;;;;;1.17;1.17;;;0.50;99.90;;;;;;5092874;28;20179;-66
2024/01/12 13:34:13;;;;;;;0.40;0.40;;;0.50;99.90;;;;;;5093566;28;20179;-66
2024/01/12 13:36:39;;;;;;;0.40;0.40;;;0.50;99.90;;;;;;5094394;28;20780;-65
2024/01/12 13:39:07;;;;;;;0.50;0.50;;;0.50;99.90;;;;;;5093989;28;20191;-64
2024/01/12 13:41:34;;;;;;;0.40;0.40;;;0.60;99.90;;;;;;5094293;28;20210;-64
2024/01/12 13:44:00;;;;;;;0.40;0.40;;;0.60;99.90;;;;;;5093531;28;20172;-65
2024/01/12 13:46:26;;;;;;;0.40;0.40;;;0.60;99.90;;;;;;5093511;28;20596;-64
2024/01/12 13:48:52;;;;;;;0.50;0.50;;;0.60;99.90;;;;;;5093969;28;20172;-64
2024/01/12 13:51:18;;;;;;;0.30;0.30;;;0.60;99.90;;;;;;5093881;28;20507;-64
2024/01/12 13:53:45;;;;;;;0.37;0.37;;;0.60;99.90;;;;;;5093857;28;20171;-64
2024/01/12 13:56:11;;;;;;;0.95;0.93;;;0.60;99.90;;;;;;5093469;28;20614;-64
2024/01/12 13:58:37;;;;;;;0.30;0.30;;;0.50;99.90;;;;;;5093781;28;20210;-64
2024/01/12 14:01:03;;;;;;;0.30;0.30;;;0.50;99.90;;;;;;5094153;28;20588;-65
2024/01/12 14:03:30;;;;;;;0.30;0.30;;;0.40;99.90;;;;;;5093762;28;20559;-65
2024/01/12 14:05:55;;;;;;;0.50;0.50;;;0.40;99.90;;;;;;5093369;28;20199;-66
2024/01/12 14:08:22;;;;;;;0.37;0.37;;;0.30;99.90;;;;;;5093690;28;20246;-65
2024/01/12 14:10:51;;;;;;;2.35;2.25;;;0.30;99.90;;;;;;5093663;28;20172;-66
2024/01/12 14:13:17;;;;;;;0.30;0.30;;;0.30;99.90;;;;;;5093304;28;20187;-67
2024/01/12 14:15:43;;;;;;;0.30;0.30;;;0.30;99.90;;;;;;5093179;28;20195;-68
2024/01/12 14:18:10;;;;;;;0.82;0.82;;;0.30;99.90;;;;;;5092239;28;20870;-63
2024/01/12 14:20:36;;;;;;;0.40;0.40;;;0.30;99.90;;;;;;5093500;28;20255;-61
2024/01/12 14:23:02;;;;;;;0.40;0.40;;;0.20;99.90;;;;;;5093507;28;20171;-63
2024/01/12 14:25:28;;;;;;;0.33;0.33;;;0.20;99.90;;;;;;5092865;28;20575;-62
2024/01/12 14:27:54;;;;;;;0.55;0.55;;;0.20;99.90;;;;;;5093302;28;20200;-63
2024/01/12 14:30:20;;;;;;;0.40;0.40;;;0.20;99.90;;;;;;5093320;28;20241;-63
2024/01/12 14:32:46;;;;;;;0.30;0.30;;;0.10;99.90;;;;;;5093201;28;20194;-63
2024/01/12 14:35:12;;;;;;;1.50;1.40;;;0.10;99.90;;;;;;5092418;28;20199;-62
2024/01/12 14:37:37;;;;;;;0.30;0.30;;;0.00;99.90;;;;;;5093216;28;20656;-64
2024/01/12 14:40:04;;;;;;;0.40;0.40;;;-0.10;99.90;;;;;;5093150;28;20648;-63
2024/01/12 14:42:30;;;;;;;1.73;1.63;;;-0.20;99.90;;;;;;5093138;28;20164;-63
2024/01/12 14:44:55;;;;;;;0.50;0.50;;;-0.20;99.90;;;;;;5092571;28;20175;-63
2024/01/12 14:47:21;;;;;;;0.40;0.40;;;-0.30;99.90;;;;;;5093426;28;20633;-63
2024/01/12 14:49:49;;;;;;;0.40;0.40;;;-0.30;99.90;;;;;;5093307;28;20959;-62
2024/01/12 14:52:16;;;;;;;0.40;0.40;;;-0.40;99.90;;;;;;5093347;28;20168;-62
2024/01/12 14:54:46;;;;;;;0.50;0.50;;;-0.50;99.90;;;;;;5092898;28;20196;-63
2024/01/12 14:57:12;;;;;;;0.40;0.40;;;-0.50;99.90;;;;;;5095583;28;20188;-62
2024/01/12 14:59:38;;;;;;;0.63;0.63;;;-0.60;99.90;;;;;;5097187;28;20194;-63
2024/01/12 15:02:03;;;;;;;0.40;0.40;;;-0.70;99.90;;;;;;5097330;28;20402;-63
2024/01/12 15:04:29;;;;;;;0.83;0.83;;;-0.80;99.90;;;;;;5095462;28;20530;-62
2024/01/12 15:06:56;;;;;;;0.60;0.60;;;-0.80;99.90;;;;;;5096877;28;20202;-62
2024/01/12 15:09:21;;;;;;;0.40;0.40;;;-0.90;99.90;;;;;;5097248;28;20168;-63
2024/01/12 15:11:47;;;;;;;0.30;0.30;;;-1.00;99.90;;;;;;5097528;28;20576;-62
2024/01/12 15:14:14;;;;;;;0.40;0.40;;;-1.10;99.90;;;;;;5096660;28;20172;-64
2024/01/12 15:16:41;;;;;;;0.40;0.40;;;-1.20;99.90;;;;;;5096777;28;20192;-63
2024/01/12 15:19:07;;;;;;;0.57;0.57;;;-1.20;99.90;;;;;;5095744;28;20172;-63
2024/01/12 15:21:33;;;;;;;0.43;0.43;;;-1.30;99.90;;;;;;5096979;28;20165;-62
2024/01/12 15:23:59;;;;;;;0.40;0.40;;;-1.40;99.90;;;;;;5096775;28;20576;-62
2024/01/12 15:26:24;;;;;;;0.40;0.40;;;-1.40;99.90;;;;;;5096339;28;20206;-63
2024/01/12 15:28:50;;;;;;;2.23;1.13;;;-1.50;99.90;;;;;;5096882;28;20176;-64
2024/01/12 15:31:16;;;;;;;0.40;0.40;;;-1.50;99.90;;;;;;5096744;28;20537;-63
2024/01/12 15:33:43;;;;;;;0.40;0.40;;;-1.60;99.90;;;;;;5096643;28;20405;-63
2024/01/12 15:36:09;;;;;;;0.40;0.40;;;-1.60;99.90;;;;;;5095892;28;20213;-64
2024/01/12 15:38:35;;;;;;;0.50;0.50;;;-1.70;99.90;;;;;;5096569;28;20188;-65
2024/01/12 15:41:01;;;;;;;0.40;0.40;;;-1.70;99.90;;;;;;5096315;28;20265;-63
2024/01/12 15:43:28;;;;;;;0.40;0.40;;;-1.80;99.90;;;;;;5096378;28;20181;-63
2024/01/12 15:45:54;;;;;;;0.40;0.40;;;-1.80;99.90;;;;;;5095849;28;20183;-63
2024/01/12 15:48:19;;;;;;;0.40;0.40;;;-1.80;99.90;;;;;;5096514;28;20193;-63
2024/01/12 15:50:45;;;;;;;0.43;0.43;;;-1.90;99.90;;;;;;5096194;28;20203;-64
2024/01/12 15:53:10;;;;;;;0.40;0.40;;;-2.00;99.90;;;;;;5096328;28;20250;-64
2024/01/12 15:55:36;;;;;;;0.40;0.40;;;-2.00;99.90;;;;;;5095688;28;20204;-64
2024/01/12 15:58:01;;;;;;;0.30;0.30;;;-2.10;99.90;;;;;;5096060;28;20232;-64
2024/01/12 16:00:27;;;;;;;0.50;0.50;;;-2.10;99.90;;;;;;5096123;28;20246;-64
2024/01/12 16:02:53;;;;;;;0.40;0.40;;;-2.10;99.90;;;;;;5096294;28;20217;-63
2024/01/12 16:05:18;;;;;;;0.40;0.40;;;-2.20;99.90;;;;;;5095638;28;20194;-63
2024/01/12 16:07:44;;;;;;;1.33;1.23;;;-2.20;99.90;;;;;;5095544;28;20164;-63
2024/01/12 16:10:10;;;;;;;0.40;0.40;;;-2.20;99.90;;;;;;5095719;28;20172;-64
2024/01/12 16:12:35;;;;;;;1.20;1.20;;;-2.20;99.90;;;;;;5095832;28;20168;-68
2024/01/12 16:15:02;;;;;;;0.50;0.50;;;-2.20;99.90;;;;;;5095276;28;20701;-66
2024/01/12 16:17:28;;;;;;;0.40;0.40;;;-2.30;99.90;;;;;;5095894;28;20161;-72
2024/01/12 16:19:54;;;;;;;0.40;0.40;;;-2.40;99.90;;;;;;5095897;28;20218;-67
2024/01/12 16:22:19;;;;;;;0.50;0.50;;;-2.40;99.90;;;;;;5094537;28;20173;-68
2024/01/12 16:24:45;;;;;;;0.40;0.40;;;-2.50;99.90;;;;;;5095319;28;20218;-65
2024/01/12 16:27:15;;;;;;;0.50;0.50;;;-2.50;99.90;;;;;;5095510;28;20224;-69
2024/01/12 16:29:41;;;;;;;0.90;0.90;;;-2.50;99.90;;;;;;5095764;28;20170;-67
2024/01/12 16:32:07;;;;;;;0.50;0.50;;;-2.50;99.90;;;;;;5095501;28;20182;-70
2024/01/12 16:34:32;;;;;;;0.40;0.40;;;-2.60;99.90;;;;;;5094667;28;20478;-67
2024/01/12 16:36:58;;;;;;;0.40;0.40;;;-2.60;99.90;;;;;;5093876;28;20238;-70
2024/01/12 16:39:24;;;;;;;0.40;0.40;;;-2.60;99.90;;;;;;5095196;28;20169;-70
2024/01/12 16:41:51;;;;;;;0.50;0.50;;;-2.60;99.90;;;;;;5095697;28;20679;-64
2024/01/12 16:44:17;;;;;;;0.40;0.40;;;-2.50;99.90;;;;;;5094909;28;20215;-69
2024/01/12 16:46:43;;;;;;;0.30;0.30;;;-2.50;99.90;;;;;;5095018;28;20604;-65
2024/01/12 16:49:08;;;;;;;0.40;0.40;;;-2.40;99.90;;;;;;5095200;28;20396;-70
2024/01/12 16:51:34;;;;;;;0.50;0.50;;;-2.40;99.90;;;;;;5094873;28;20462;-66
2024/01/12 16:54:00;;;;;;;0.50;0.50;;;-2.40;99.90;;;;;;5095187;28;20226;-65
2024/01/12 16:56:25;;;;;;;0.40;0.40;;;-2.40;99.90;;;;;;5094856;28;20202;-72
2024/01/12 16:58:51;;;;;;;0.40;0.40;;;-2.30;99.90;;;;;;5096179;28;20170;-72
2024/01/12 17:01:16;;;;;;;0.43;0.43;;;-2.20;99.90;;;;;;5095784;28;20167;-70
2024/01/12 17:03:42;;;;;;;0.40;0.40;;;-2.10;99.90;;;;;;5095224;28;20210;-71
2024/01/12 17:06:08;;;;;;;1.53;1.43;;;-2.10;99.90;;;;;;5094911;28;20262;-70
2024/01/12 17:08:34;;;;;;;0.50;0.50;;;-2.00;99.90;;;;;;5095124;28;20176;-62
2024/01/12 17:11:00;;;;;;;0.57;0.57;;;-2.00;99.90;;;;;;5095115;28;20243;-67
2024/01/12 17:13:26;;;;;;;0.43;0.43;;;-1.90;99.90;;;;;;5094389;28;20215;-62
2024/01/12 17:15:51;;;;;;;0.50;0.50;;;-1.90;99.90;;;;;;5093337;28;21061;-64
2024/01/12 17:18:17;;;;;;;0.50;0.50;;;-1.90;99.90;;;;;;5094723;28;20166;-63
2024/01/12 17:20:43;;;;;;;0.43;0.43;;;-1.80;99.90;;;;;;5094459;28;20506;-64
2024/01/12 17:23:09;;;;;;;0.50;0.50;;;-1.80;99.90;;;;;;5094487;28;20203;-63
2024/01/12 17:25:34;;;;;;;0.70;0.70;;;-1.80;99.90;;;;;;5094143;28;20205;-63
2024/01/12 17:28:01;;;;;;;0.47;0.47;;;-1.70;99.90;;;;;;5094531;28;20802;-63
2024/01/12 17:30:26;;;;;;;0.70;0.70;;;-1.70;99.90;;;;;;5094035;28;20255;-64
2024/01/12 17:32:52;;;;;;;0.40;0.40;;;-1.70;99.90;;;;;;5074201;28;20682;-64
2024/01/12 17:35:17;;;;;;;0.30;0.30;;;-1.70;99.90;;;;;;5075314;28;20211;-64
2024/01/12 17:37:43;;;;;;;0.40;0.40;;;-1.60;99.90;;;;;;5087583;28;20180;-64
2024/01/12 17:40:09;;;;;;;0.50;0.50;;;-1.60;99.90;;;;;;5094097;28;20171;-65
2024/01/12 17:42:36;;;;;;;0.40;0.40;;;-1.70;99.90;;;;;;5090033;28;20172;-65
2024/01/12 17:45:05;;;;;;;0.40;0.40;;;-1.60;99.90;;;;;;5090369;28;20189;-64
2024/01/12 17:47:32;;;;;;;0.50;0.50;;;-1.60;99.90;;;;;;5072723;28;20583;-66
2024/01/12 17:49:57;;;;;;;0.40;0.40;;;-1.60;99.90;;;;;;5074258;28;20184;-63